Time;durP1;ratioP1;P1;durP2;ratioP2;P2;SDS_P1;SDS_P2;PMS_P1;PMS_P2;Temp;Humidity;BMP_temperature;BMP_pressure;BME280_temperature;BME280_humidity;BME280_pressure;Samples;Min_cycle;Max_cycle;Signal;HPM_P1;HPM_P2
2022/11/16 00:00:21;;;;;;;53.97;33.97;;;;;;;;;;5010032;28;20124;-78
2022/11/16 00:02:50;;;;;;;60.10;34.40;;;;;;;;;;5006149;28;20160;-77
2022/11/16 00:05:20;;;;;;;57.42;34.17;;;;;;;;;;5027424;28;20038;-76
2022/11/16 00:07:46;;;;;;;57.72;34.42;;;;;;;;;;5014974;28;20041;-77
2022/11/16 00:10:12;;;;;;;55.45;32.83;;;;;;;;;;5016895;28;20030;-78
2022/11/16 00:12:38;;;;;;;55.95;33.28;;;;;;;;;;5014073;28;20022;-78
2022/11/16 00:15:08;;;;;;;48.28;31.45;;;;;;;;;;5021803;28;20060;-77
2022/11/16 00:17:34;;;;;;;50.40;31.95;;;;;;;;;;5027914;28;20068;-78
2022/11/16 00:20:00;;;;;;;49.75;32.05;;;;;;;;;;5017947;28;20077;-78
2022/11/16 00:22:26;;;;;;;56.17;32.58;;;;;;;;;;5027984;28;20033;-77
2022/11/16 00:24:52;;;;;;;54.90;32.38;;;;;;;;;;5018738;28;20032;-77
2022/11/16 00:27:19;;;;;;;53.20;32.95;;;;;;;;;;5032974;28;20037;-79
2022/11/16 00:29:45;;;;;;;52.40;32.35;;;;;;;;;;5021762;28;20146;-77
2022/11/16 00:32:11;;;;;;;55.33;33.47;;;;;;;;;;5023544;28;20060;-77
2022/11/16 00:34:38;;;;;;;49.42;31.88;;;;;;;;;;5013077;28;20405;-77
2022/11/16 00:37:04;;;;;;;50.00;32.75;;;;;;;;;;5012758;28;20034;-78
2022/11/16 00:39:30;;;;;;;57.42;34.17;;;;;;;;;;5011161;28;20045;-78
2022/11/16 00:41:56;;;;;;;56.55;33.88;;;;;;;;;;5009183;28;20030;-76
2022/11/16 00:44:22;;;;;;;53.20;31.98;;;;;;;;;;5005426;28;20017;-77
2022/11/16 00:46:48;;;;;;;50.30;32.20;;;;;;;;;;5004104;28;20038;-77
2022/11/16 00:52:18;;;;;;;51.70;32.33;;;;;;;;;;4999642;28;20053;-77
2022/11/16 00:55:04;;;;;;;50.13;31.73;;;;;;;;;;5001417;28;20034;-77
2022/11/16 00:57:30;;;;;;;47.80;31.35;;;;;;;;;;5005127;28;20033;-77
2022/11/16 00:59:56;;;;;;;50.13;32.03;;;;;;;;;;5011260;28;20400;-77
2022/11/16 01:02:22;;;;;;;58.90;34.25;;;;;;;;;;4994437;28;20045;-78
2022/11/16 01:05:06;;;;;;;56.03;34.25;;;;;;;;;;5020506;28;20022;-77
2022/11/16 01:07:34;;;;;;;55.33;34.08;;;;;;;;;;4998931;28;20030;-78
2022/11/16 01:10:00;;;;;;;55.78;34.97;;;;;;;;;;5004078;28;20050;-78
2022/11/16 01:12:26;;;;;;;53.47;34.60;;;;;;;;;;5007348;28;20147;-78
2022/11/16 01:14:52;;;;;;;56.53;33.28;;;;;;;;;;5006792;28;20709;-77
2022/11/16 01:17:18;;;;;;;61.72;35.17;;;;;;;;;;5000728;28;20042;-78
2022/11/16 01:19:45;;;;;;;58.20;36.42;;;;;;;;;;5002629;28;20423;-76
2022/11/16 01:22:11;;;;;;;58.72;35.00;;;;;;;;;;5003089;28;20125;-77
2022/11/16 01:24:37;;;;;;;59.20;35.30;;;;;;;;;;5004078;28;20029;-76
2022/11/16 01:27:03;;;;;;;59.47;35.65;;;;;;;;;;5001191;28;20151;-77
2022/11/16 01:29:30;;;;;;;59.15;35.03;;;;;;;;;;5004173;28;20576;-77
2022/11/16 01:31:56;;;;;;;54.33;35.67;;;;;;;;;;5011870;28;20037;-77
2022/11/16 01:34:41;;;;;;;56.65;34.45;;;;;;;;;;5024311;28;20015;-77
2022/11/16 01:37:07;;;;;;;60.95;36.05;;;;;;;;;;5015232;28;20068;-77
2022/11/16 01:39:33;;;;;;;61.30;36.75;;;;;;;;;;5018592;28;20041;-81
2022/11/16 01:41:59;;;;;;;59.65;36.00;;;;;;;;;;5017568;28;20503;-78
2022/11/16 01:44:31;;;;;;;61.42;36.70;;;;;;;;;;5020518;28;20017;-78
2022/11/16 01:47:18;;;;;;;65.13;36.38;;;;;;;;;;5020973;28;20036;-77
2022/11/16 01:49:49;;;;;;;61.80;36.70;;;;;;;;;;5021232;28;20053;-77
2022/11/16 01:52:18;;;;;;;64.15;38.20;;;;;;;;;;5020589;28;20030;-77
2022/11/16 01:54:45;;;;;;;60.90;37.13;;;;;;;;;;5030129;28;20040;-78
2022/11/16 01:57:15;;;;;;;62.05;37.08;;;;;;;;;;5022016;28;20094;-80
2022/11/16 01:59:43;;;;;;;64.13;39.20;;;;;;;;;;5018645;28;20030;-77
2022/11/16 02:05:32;;;;;;;72.30;38.88;;;;;;;;;;5013120;28;20047;-78
2022/11/16 02:10:55;;;;;;;62.22;37.42;;;;;;;;;;5007138;28;20112;-78
2022/11/16 02:13:34;;;;;;;70.05;38.72;;;;;;;;;;4994654;28;20026;-78
2022/11/16 02:16:19;;;;;;;68.35;39.00;;;;;;;;;;4999305;28;20116;-78
2022/11/16 02:18:53;;;;;;;66.95;39.38;;;;;;;;;;4995728;28;20094;-77
2022/11/16 02:21:19;;;;;;;63.25;39.17;;;;;;;;;;5003297;28;20038;-78
2022/11/16 02:24:00;;;;;;;66.30;39.55;;;;;;;;;;5001872;28;20030;-77
2022/11/16 02:26:32;;;;;;;64.75;38.60;;;;;;;;;;5005235;28;20030;-78
2022/11/16 02:29:01;;;;;;;63.72;38.63;;;;;;;;;;5006019;28;20025;-78
2022/11/16 02:31:30;;;;;;;66.53;41.22;;;;;;;;;;5003592;28;20364;-78
2022/11/16 02:33:56;;;;;;;61.53;40.35;;;;;;;;;;5004009;28;20078;-78
2022/11/16 02:36:24;;;;;;;60.17;39.72;;;;;;;;;;5007547;28;20064;-78
2022/11/16 02:39:11;;;;;;;57.45;40.10;;;;;;;;;;5006689;28;20045;-79
2022/11/16 02:41:39;;;;;;;55.85;37.83;;;;;;;;;;4997060;28;20073;-78
2022/11/16 02:44:14;;;;;;;62.28;39.83;;;;;;;;;;4998060;28;20034;-77
2022/11/16 02:46:43;;;;;;;59.22;39.47;;;;;;;;;;5002622;28;20054;-78
2022/11/16 02:49:11;;;;;;;59.88;39.08;;;;;;;;;;5003871;28;20026;-77
2022/11/16 02:51:38;;;;;;;59.25;38.63;;;;;;;;;;5000469;28;20014;-77
2022/11/16 02:54:07;;;;;;;62.55;38.35;;;;;;;;;;5010468;28;20003;-78
2022/11/16 02:57:00;;;;;;;63.05;40.20;;;;;;;;;;5005833;28;20050;-78
2022/11/16 02:59:28;;;;;;;66.00;39.88;;;;;;;;;;4971368;28;20099;-78
2022/11/16 03:02:13;;;;;;;67.90;40.95;;;;;;;;;;5016340;28;20057;-78
2022/11/16 03:04:43;;;;;;;62.22;39.70;;;;;;;;;;5021805;28;20029;-78
2022/11/16 03:07:11;;;;;;;61.35;38.80;;;;;;;;;;5023246;28;20093;-78
2022/11/16 03:09:39;;;;;;;67.75;39.70;;;;;;;;;;5019734;28;20032;-78
2022/11/16 03:12:07;;;;;;;64.90;40.22;;;;;;;;;;5018283;28;20040;-78
2022/11/16 03:14:36;;;;;;;67.65;40.33;;;;;;;;;;5035925;28;20077;-77
2022/11/16 03:17:03;;;;;;;65.40;40.88;;;;;;;;;;5021744;28;20040;-78
2022/11/16 03:19:40;;;;;;;63.28;38.00;;;;;;;;;;5019465;28;20038;-78
2022/11/16 03:28:20;;;;;;;66.00;38.50;;;;;;;;;;5010406;28;20129;-78
2022/11/16 03:30:50;;;;;;;61.47;37.72;;;;;;;;;;5015471;28;20037;-79
2022/11/16 03:33:34;;;;;;;57.83;35.95;;;;;;;;;;5006447;28;20040;-78
2022/11/16 03:39:11;;;;;;;58.70;35.88;;;;;;;;;;5003317;28;20310;-78
2022/11/16 03:41:39;;;;;;;60.63;36.50;;;;;;;;;;5011818;28;20039;-79
2022/11/16 03:44:07;;;;;;;54.60;35.10;;;;;;;;;;5005596;28;20103;-78
2022/11/16 03:46:34;;;;;;;65.78;36.15;;;;;;;;;;5005511;28;20049;-79
2022/11/16 03:49:02;;;;;;;63.67;37.15;;;;;;;;;;4999225;28;20109;-78
2022/11/16 03:51:28;;;;;;;66.28;38.08;;;;;;;;;;5001216;28;20054;-78
2022/11/16 03:53:54;;;;;;;64.65;38.03;;;;;;;;;;5002453;28;20630;-76
2022/11/16 03:56:20;;;;;;;70.05;39.17;;;;;;;;;;5013112;28;20042;-79
2022/11/16 03:58:46;;;;;;;64.90;38.17;;;;;;;;;;5002726;28;20117;-79
2022/11/16 04:01:13;;;;;;;58.78;35.10;;;;;;;;;;5002994;28;20038;-76
2022/11/16 04:03:39;;;;;;;59.00;36.00;;;;;;;;;;5002241;28;20034;-78
2022/11/16 04:28:11;;;;;;;42.78;27.45;;;;;;;;;;5023681;28;20053;-76
2022/11/16 04:29:06;;;;;;;46.97;26.38;;;;;;;;;;5023229;28;20121;-76
2022/11/16 04:40:07;;;;;;;48.92;29.30;;;;;;;;;;5006683;28;20123;-76
2022/11/16 04:42:33;;;;;;;48.38;28.90;;;;;;;;;;5017413;28;20015;-78
2022/11/16 04:50:48;;;;;;;47.53;28.77;;;;;;;;;;5003074;28;20120;-78
2022/11/16 04:53:14;;;;;;;46.35;29.50;;;;;;;;;;4999817;28;20496;-78
2022/11/16 04:55:41;;;;;;;50.38;28.92;;;;;;;;;;5000686;28;20029;-79
2022/11/16 04:58:07;;;;;;;44.63;27.83;;;;;;;;;;5002341;28;20380;-79
2022/11/16 05:00:33;;;;;;;43.65;27.35;;;;;;;;;;5004653;28;20064;-78
2022/11/16 05:02:59;;;;;;;49.28;27.20;;;;;;;;;;5004144;28;20034;-81
2022/11/16 05:05:25;;;;;;;46.03;28.05;;;;;;;;;;5004624;28;20029;-79
2022/11/16 05:07:54;;;;;;;49.72;27.52;;;;;;;;;;5010699;28;20037;-80
2022/11/16 05:10:19;;;;;;;46.25;26.77;;;;;;;;;;4998673;28;20185;-79
2022/11/16 05:12:46;;;;;;;48.75;27.98;;;;;;;;;;5015146;28;20054;-78
2022/11/16 05:15:12;;;;;;;45.50;27.63;;;;;;;;;;4994209;28;20033;-78
2022/11/16 05:17:38;;;;;;;47.75;28.92;;;;;;;;;;5008296;28;20026;-78
2022/11/16 05:22:53;;;;;;;53.25;29.80;;;;;;;;;;5014668;28;20053;-79
2022/11/16 05:25:21;;;;;;;50.03;28.85;;;;;;;;;;5032943;28;20072;-79
2022/11/16 05:27:47;;;;;;;55.53;29.90;;;;;;;;;;5035664;28;20018;-78
2022/11/16 05:30:13;;;;;;;55.03;29.58;;;;;;;;;;5024064;28;20046;-77
2022/11/16 05:32:39;;;;;;;57.55;29.20;;;;;;;;;;5026769;28;20107;-79
2022/11/16 05:35:05;;;;;;;52.22;29.33;;;;;;;;;;5020183;28;20041;-78
2022/11/16 05:37:31;;;;;;;53.15;28.95;;;;;;;;;;5025011;28;20011;-78
2022/11/16 05:39:57;;;;;;;51.53;29.58;;;;;;;;;;5011570;28;20157;-78
2022/11/16 05:42:23;;;;;;;59.38;29.55;;;;;;;;;;5019408;28;20089;-78
2022/11/16 05:44:49;;;;;;;53.10;29.58;;;;;;;;;;5012150;28;20041;-78
2022/11/16 05:47:15;;;;;;;56.25;29.45;;;;;;;;;;5011469;28;20472;-78
2022/11/16 05:49:41;;;;;;;47.83;29.45;;;;;;;;;;5008390;28;20547;-78
2022/11/16 05:52:07;;;;;;;48.22;28.25;;;;;;;;;;5000465;28;20122;-80
2022/11/16 05:54:52;;;;;;;68.88;30.60;;;;;;;;;;5002084;28;20026;-78
2022/11/16 05:57:18;;;;;;;51.22;28.70;;;;;;;;;;5004010;28;20018;-78
2022/11/16 05:59:44;;;;;;;58.60;31.00;;;;;;;;;;5008114;28;20029;-78
2022/11/16 06:02:10;;;;;;;52.45;27.92;;;;;;;;;;5003702;28;20049;-78
2022/11/16 06:04:37;;;;;;;51.58;28.70;;;;;;;;;;4998636;28;20026;-78
2022/11/16 06:07:03;;;;;;;56.30;28.30;;;;;;;;;;5003302;28;20018;-78
2022/11/16 06:09:29;;;;;;;48.08;26.75;;;;;;;;;;4995043;28;20034;-77
2022/11/16 06:11:55;;;;;;;40.00;24.27;;;;;;;;;;5001548;28;20061;-79
2022/11/16 06:14:21;;;;;;;39.65;22.60;;;;;;;;;;5006399;28;20041;-78
2022/11/16 06:16:47;;;;;;;39.72;20.83;;;;;;;;;;5000740;28;20150;-78
2022/11/16 06:19:13;;;;;;;37.40;21.17;;;;;;;;;;5003721;28;20037;-78
2022/11/16 06:21:39;;;;;;;37.78;21.77;;;;;;;;;;5004120;28;20491;-78
2022/11/16 06:24:07;;;;;;;36.15;21.63;;;;;;;;;;5006077;28;20030;-79
2022/11/16 06:26:33;;;;;;;39.60;23.15;;;;;;;;;;5009173;28;20038;-79
2022/11/16 06:29:00;;;;;;;39.25;22.40;;;;;;;;;;5007722;28;20509;-78
2022/11/16 06:31:25;;;;;;;38.78;24.50;;;;;;;;;;5008403;28;20084;-78
2022/11/16 06:33:52;;;;;;;57.70;25.10;;;;;;;;;;5008958;28;20038;-79
2022/11/16 06:36:18;;;;;;;51.90;24.90;;;;;;;;;;5017575;28;20037;-78
2022/11/16 06:38:44;;;;;;;50.15;22.73;;;;;;;;;;5018247;28;20081;-79
2022/11/16 06:41:10;;;;;;;45.92;21.23;;;;;;;;;;5017913;28;20014;-80
2022/11/16 06:43:36;;;;;;;31.38;18.15;;;;;;;;;;5025274;28;20279;-85
2022/11/16 06:46:02;;;;;;;36.03;18.15;;;;;;;;;;5028973;28;20101;-78
2022/11/16 06:48:29;;;;;;;33.30;17.33;;;;;;;;;;5018724;28;20033;-78
2022/11/16 06:50:55;;;;;;;30.58;17.88;;;;;;;;;;5023486;28;20036;-78
2022/11/16 06:53:22;;;;;;;34.40;18.55;;;;;;;;;;5018626;28;20029;-78
2022/11/16 06:55:48;;;;;;;35.72;19.55;;;;;;;;;;5022291;28;20031;-78
2022/11/16 06:58:14;;;;;;;34.35;18.40;;;;;;;;;;5015040;28;20033;-79
2022/11/16 07:00:40;;;;;;;42.85;20.70;;;;;;;;;;5016715;28;20122;-78
2022/11/16 07:03:06;;;;;;;40.03;20.45;;;;;;;;;;5018269;28;20061;-78
2022/11/16 07:05:32;;;;;;;45.67;20.38;;;;;;;;;;5017787;28;20036;-78
2022/11/16 07:07:58;;;;;;;36.80;19.77;;;;;;;;;;5016559;28;20031;-79
2022/11/16 07:10:24;;;;;;;37.20;19.38;;;;;;;;;;5012156;28;20299;-79
2022/11/16 07:12:50;;;;;;;37.17;20.48;;;;;;;;;;5019726;28;20034;-78
2022/11/16 07:15:17;;;;;;;33.88;17.60;;;;;;;;;;5014358;28;20498;-79
2022/11/16 07:17:43;;;;;;;36.55;18.20;;;;;;;;;;5024710;28;20101;-78
2022/11/16 07:20:10;;;;;;;38.10;17.27;;;;;;;;;;5011522;28;20039;-81
2022/11/16 07:22:36;;;;;;;36.10;17.95;;;;;;;;;;5006040;28;20062;-80
2022/11/16 07:25:02;;;;;;;32.30;16.48;;;;;;;;;;5001569;28;20031;-76
2022/11/16 07:27:28;;;;;;;36.53;16.08;;;;;;;;;;4999342;28;20064;-79
2022/11/16 07:29:55;;;;;;;35.33;16.35;;;;;;;;;;4981094;28;20065;-78
2022/11/16 07:32:21;;;;;;;35.00;16.48;;;;;;;;;;5008110;28;20053;-80
2022/11/16 07:34:47;;;;;;;37.78;16.85;;;;;;;;;;4998769;28;20472;-78
2022/11/16 07:37:13;;;;;;;26.50;15.20;;;;;;;;;;4993140;28;20026;-78
2022/11/16 07:39:39;;;;;;;36.22;15.48;;;;;;;;;;5021023;28;20128;-77
2022/11/16 07:42:10;;;;;;;33.15;15.43;;;;;;;;;;5010026;28;20026;-78
2022/11/16 07:44:36;;;;;;;30.42;15.07;;;;;;;;;;5011229;28;20048;-79
2022/11/16 07:47:02;;;;;;;35.28;15.27;;;;;;;;;;5005212;28;20092;-78
2022/11/16 07:49:28;;;;;;;26.98;14.23;;;;;;;;;;5004851;28;20033;-79
2022/11/16 07:51:54;;;;;;;29.65;14.80;;;;;;;;;;5000273;28;20531;-78
2022/11/16 07:54:20;;;;;;;28.65;14.90;;;;;;;;;;5010703;28;20034;-79
2022/11/16 07:56:46;;;;;;;27.35;14.02;;;;;;;;;;5005484;28;20562;-77
2022/11/16 07:59:12;;;;;;;26.55;13.40;;;;;;;;;;5009181;28;20081;-77
2022/11/16 08:01:38;;;;;;;34.60;12.85;;;;;;;;;;5006377;28;20565;-78
2022/11/16 08:04:04;;;;;;;22.30;11.15;;;;;;;;;;4997233;28;20034;-78
2022/11/16 08:06:32;;;;;;;31.15;12.43;;;;;;;;;;4978019;28;20023;-78
2022/11/16 08:08:59;;;;;;;31.17;14.90;;;;;;;;;;5000767;28;20041;-78
2022/11/16 08:11:25;;;;;;;28.75;11.40;;;;;;;;;;4994754;28;20140;-78
2022/11/16 08:13:52;;;;;;;25.10;11.23;;;;;;;;;;5010403;28;20061;-77
2022/11/16 08:16:19;;;;;;;33.10;11.65;;;;;;;;;;5006644;28;20117;-78
2022/11/16 08:18:45;;;;;;;42.42;11.80;;;;;;;;;;5010894;28;20068;-78
2022/11/16 08:21:13;;;;;;;20.23;9.80;;;;;;;;;;5005401;28;20026;-78
2022/11/16 08:23:39;;;;;;;28.15;10.32;;;;;;;;;;5018389;28;20038;-78
2022/11/16 08:26:14;;;;;;;25.67;10.23;;;;;;;;;;5016268;28;20077;-78
2022/11/16 08:28:40;;;;;;;28.25;9.75;;;;;;;;;;5009630;28;20512;-78
2022/11/16 08:31:26;;;;;;;23.80;9.13;;;;;;;;;;5010129;28;20174;-78
2022/11/16 08:33:52;;;;;;;22.23;8.50;;;;;;;;;;5030017;28;20072;-78
2022/11/16 08:36:18;;;;;;;25.15;8.48;;;;;;;;;;5027351;28;20090;-78
2022/11/16 08:38:45;;;;;;;26.65;9.38;;;;;;;;;;5024321;28;20030;-77
2022/11/16 08:41:11;;;;;;;22.08;8.05;;;;;;;;;;5034707;28;20042;-78
2022/11/16 08:47:00;;;;;;;23.20;6.68;;;;;;;;;;5037481;28;20064;-78
2022/11/16 08:49:27;;;;;;;28.85;8.00;;;;;;;;;;5014914;28;20046;-77
2022/11/16 08:51:54;;;;;;;23.38;8.45;;;;;;;;;;5013786;28;20027;-77
2022/11/16 08:54:22;;;;;;;21.05;6.70;;;;;;;;;;5011783;28;20019;-77
2022/11/16 08:56:48;;;;;;;22.70;7.65;;;;;;;;;;5008622;28;20078;-77
2022/11/16 09:02:24;;;;;;;24.23;7.05;;;;;;;;;;5024418;28;20140;-78
2022/11/16 09:04:50;;;;;;;23.42;6.60;;;;;;;;;;5005395;28;20086;-77
2022/11/16 09:07:16;;;;;;;19.20;6.30;;;;;;;;;;5001840;28;20030;-78
2022/11/16 09:09:42;;;;;;;23.58;6.75;;;;;;;;;;4983001;28;20511;-78
2022/11/16 09:12:27;;;;;;;28.17;7.68;;;;;;;;;;5007065;28;20034;-78
2022/11/16 09:15:11;;;;;;;22.15;6.95;;;;;;;;;;5008552;28;20366;-78
2022/11/16 09:17:37;;;;;;;19.73;6.75;;;;;;;;;;5002567;28;20043;-78
2022/11/16 09:20:04;;;;;;;28.30;7.40;;;;;;;;;;4995324;28;20026;-75
2022/11/16 09:22:30;;;;;;;22.90;7.63;;;;;;;;;;4994625;28;20038;-78
2022/11/16 09:24:56;;;;;;;22.55;7.65;;;;;;;;;;5017426;28;20458;-78
2022/11/16 09:27:22;;;;;;;23.95;8.45;;;;;;;;;;5006852;28;20006;-78
2022/11/16 09:29:48;;;;;;;21.98;7.18;;;;;;;;;;4999421;28;20056;-77
2022/11/16 09:32:14;;;;;;;29.02;8.70;;;;;;;;;;4995169;28;20102;-77
2022/11/16 09:34:40;;;;;;;16.95;7.07;;;;;;;;;;5013720;28;20026;-77
2022/11/16 09:37:06;;;;;;;24.77;7.93;;;;;;;;;;4994996;28;20031;-77
2022/11/16 09:39:33;;;;;;;20.98;8.48;;;;;;;;;;5013430;28;20080;-77
2022/11/16 09:42:19;;;;;;;20.10;7.82;;;;;;;;;;5003226;28;20100;-77
2022/11/16 09:44:45;;;;;;;20.92;7.47;;;;;;;;;;5002164;28;20092;-77
2022/11/16 09:47:17;;;;;;;23.20;7.85;;;;;;;;;;4993533;28;20042;-77
2022/11/16 09:49:47;;;;;;;23.20;7.57;;;;;;;;;;4994073;28;20034;-77
2022/11/16 09:52:23;;;;;;;28.33;6.85;;;;;;;;;;5006976;28;20438;-77
2022/11/16 09:54:50;;;;;;;19.45;6.35;;;;;;;;;;5013704;28;20034;-77
2022/11/16 09:57:18;;;;;;;16.67;6.78;;;;;;;;;;4995382;28;20026;-76
2022/11/16 09:59:49;;;;;;;20.15;6.30;;;;;;;;;;4993651;28;20033;-77
2022/11/16 10:02:18;;;;;;;17.98;7.00;;;;;;;;;;5005007;28;20037;-78
2022/11/16 10:04:46;;;;;;;21.13;6.55;;;;;;;;;;5003811;28;20379;-76
2022/11/16 10:07:14;;;;;;;25.52;6.07;;;;;;;;;;5011394;28;20038;-77
2022/11/16 10:09:41;;;;;;;19.48;6.32;;;;;;;;;;5006453;28;20118;-76
2022/11/16 10:12:07;;;;;;;26.17;6.78;;;;;;;;;;5000451;28;20034;-77
2022/11/16 10:14:39;;;;;;;17.65;5.95;;;;;;;;;;5002912;28;20034;-76
2022/11/16 10:17:20;;;;;;;20.85;5.65;;;;;;;;;;5016064;28;20049;-76
2022/11/16 10:19:46;;;;;;;23.45;7.93;;;;;;;;;;5013766;28;20028;-77
2022/11/16 10:22:27;;;;;;;15.85;5.70;;;;;;;;;;5025608;28;20034;-76
2022/11/16 10:24:57;;;;;;;19.52;5.63;;;;;;;;;;5011710;28;20046;-78
2022/11/16 10:27:43;;;;;;;21.63;5.07;;;;;;;;;;5013614;28;20022;-78
2022/11/16 10:30:11;;;;;;;12.27;5.18;;;;;;;;;;5014243;28;20175;-76
2022/11/16 10:32:37;;;;;;;19.20;5.40;;;;;;;;;;5023793;28;20042;-87
2022/11/16 10:35:08;;;;;;;21.05;6.00;;;;;;;;;;5015876;28;20038;-77
2022/11/16 10:37:35;;;;;;;19.88;5.95;;;;;;;;;;5013549;28;20035;-77
2022/11/16 10:40:01;;;;;;;17.05;5.32;;;;;;;;;;5022433;28;20034;-77
2022/11/16 10:42:40;;;;;;;11.90;4.30;;;;;;;;;;5023206;28;20039;-77
2022/11/16 10:45:07;;;;;;;16.80;4.78;;;;;;;;;;5013043;28;20053;-77
2022/11/16 10:47:43;;;;;;;15.02;5.07;;;;;;;;;;5015926;28;20109;-78
2022/11/16 10:50:18;;;;;;;20.83;4.97;;;;;;;;;;5012306;28;20020;-76
2022/11/16 10:52:44;;;;;;;15.90;4.80;;;;;;;;;;5000720;28;20134;-76
2022/11/16 10:55:14;;;;;;;26.77;4.55;;;;;;;;;;4995295;28;20062;-77
2022/11/16 10:58:01;;;;;;;13.60;3.90;;;;;;;;;;4995561;28;20031;-77
2022/11/16 11:00:39;;;;;;;10.95;4.45;;;;;;;;;;4993090;28;20134;-76
2022/11/16 11:03:06;;;;;;;14.57;4.05;;;;;;;;;;4995838;28;20412;-76
2022/11/16 11:05:33;;;;;;;22.00;5.50;;;;;;;;;;5022727;28;20034;-76
2022/11/16 11:08:04;;;;;;;13.57;3.90;;;;;;;;;;5011098;28;20038;-77
2022/11/16 11:10:30;;;;;;;16.98;4.28;;;;;;;;;;5007394;28;20026;-77
2022/11/16 11:13:11;;;;;;;14.50;3.90;;;;;;;;;;4992857;28;20027;-77
2022/11/16 11:15:38;;;;;;;18.58;4.57;;;;;;;;;;4998657;28;20053;-78
2022/11/16 11:18:13;;;;;;;16.08;3.60;;;;;;;;;;5009609;28;20721;-77
2022/11/16 11:20:40;;;;;;;17.42;3.88;;;;;;;;;;5001528;28;20030;-77
2022/11/16 11:23:17;;;;;;;11.27;3.58;;;;;;;;;;5011692;28;20041;-77
2022/11/16 11:25:49;;;;;;;15.10;3.83;;;;;;;;;;5008386;28;20050;-77
2022/11/16 11:28:25;;;;;;;16.13;4.25;;;;;;;;;;5009605;28;20289;-77
2022/11/16 11:30:59;;;;;;;16.70;4.47;;;;;;;;;;5001252;28;20500;-77
2022/11/16 11:33:28;;;;;;;15.55;3.72;;;;;;;;;;4997959;28;20036;-78
2022/11/16 11:36:02;;;;;;;17.50;3.90;;;;;;;;;;5008339;28;20081;-77
2022/11/16 11:38:28;;;;;;;13.63;3.42;;;;;;;;;;5001674;28;20108;-77
2022/11/16 11:40:56;;;;;;;13.55;3.58;;;;;;;;;;5013638;28;20080;-77
2022/11/16 11:43:24;;;;;;;13.50;3.33;;;;;;;;;;5016085;28;20110;-76
2022/11/16 11:46:17;;;;;;;13.38;4.40;;;;;;;;;;5009723;28;20085;-78
2022/11/16 11:49:03;;;;;;;15.10;3.50;;;;;;;;;;4995903;28;20499;-77
2022/11/16 11:51:38;;;;;;;14.50;3.40;;;;;;;;;;5000704;28;20014;-77
2022/11/16 11:54:05;;;;;;;12.80;3.35;;;;;;;;;;5002525;28;20026;-78
2022/11/16 11:56:33;;;;;;;17.52;3.38;;;;;;;;;;5003393;28;20035;-76
2022/11/16 11:58:58;;;;;;;15.63;2.95;;;;;;;;;;5005100;28;20034;-76
2022/11/16 12:01:24;;;;;;;17.48;5.32;;;;;;;;;;5008690;28;20095;-76
2022/11/16 12:04:09;;;;;;;12.63;3.25;;;;;;;;;;5021911;28;20036;-77
2022/11/16 12:06:38;;;;;;;19.58;4.35;;;;;;;;;;5019771;28;20084;-78
2022/11/16 12:09:12;;;;;;;13.70;3.22;;;;;;;;;;5020661;28;20034;-76
2022/11/16 12:11:44;;;;;;;15.60;4.53;;;;;;;;;;5015492;28;20041;-84
2022/11/16 12:14:17;;;;;;;12.80;3.03;;;;;;;;;;5022200;28;20018;-74
2022/11/16 12:17:02;;;;;;;15.55;3.03;;;;;;;;;;5024045;28;20022;-76
2022/11/16 12:19:38;;;;;;;12.00;2.90;;;;;;;;;;5031879;28;20030;-76
2022/11/16 12:22:07;;;;;;;23.42;2.85;;;;;;;;;;5027768;28;20036;-75
2022/11/16 12:24:52;;;;;;;10.13;2.90;;;;;;;;;;5032124;28;20022;-77
2022/11/16 12:27:28;;;;;;;11.57;2.85;;;;;;;;;;5022986;28;20019;-76
2022/11/16 12:30:04;;;;;;;17.38;3.13;;;;;;;;;;5021286;28;20029;-76
2022/11/16 12:32:36;;;;;;;21.90;4.32;;;;;;;;;;5005061;28;20507;-76
2022/11/16 12:35:08;;;;;;;8.88;2.53;;;;;;;;;;5013553;28;20033;-75
2022/11/16 12:37:57;;;;;;;12.88;2.85;;;;;;;;;;5018218;28;20056;-77
2022/11/16 12:40:52;;;;;;;15.85;3.55;;;;;;;;;;4998607;28;20229;-76
2022/11/16 12:43:18;;;;;;;13.82;3.10;;;;;;;;;;5004890;28;20037;-76
2022/11/16 12:45:49;;;;;;;13.13;3.30;;;;;;;;;;5003462;28;20570;-76
2022/11/16 12:48:15;;;;;;;13.40;3.58;;;;;;;;;;5015569;28;20029;-77
2022/11/16 12:50:47;;;;;;;11.30;3.38;;;;;;;;;;5011600;28;20380;-77
2022/11/16 12:53:32;;;;;;;11.35;3.00;;;;;;;;;;4998122;28;20034;-78
2022/11/16 12:56:17;;;;;;;11.10;2.63;;;;;;;;;;5006356;28;20121;-77
2022/11/16 12:58:59;;;;;;;17.08;3.00;;;;;;;;;;5003165;28;20510;-77
2022/11/16 13:01:28;;;;;;;11.35;3.00;;;;;;;;;;5004808;28;20030;-77
2022/11/16 13:03:56;;;;;;;9.73;2.65;;;;;;;;;;5014108;28;20036;-76
2022/11/16 13:06:34;;;;;;;20.92;2.92;;;;;;;;;;5015541;28;20029;-76
2022/11/16 13:09:21;;;;;;;12.73;2.80;;;;;;;;;;5013819;28;20109;-77
2022/11/16 13:11:54;;;;;;;15.32;3.00;;;;;;;;;;4997589;28;20105;-77
2022/11/16 13:14:25;;;;;;;11.77;2.75;;;;;;;;;;5000448;28;20133;-76
2022/11/16 13:16:52;;;;;;;9.40;2.97;;;;;;;;;;5013514;28;20046;-75
2022/11/16 13:19:18;;;;;;;16.65;2.80;;;;;;;;;;5011416;28;20057;-75
2022/11/16 13:21:51;;;;;;;9.63;3.10;;;;;;;;;;5002003;28;20037;-76
2022/11/16 13:24:36;;;;;;;11.48;2.63;;;;;;;;;;5013563;28;20113;-75
2022/11/16 13:27:24;;;;;;;11.23;2.80;;;;;;;;;;4995989;28;20026;-76
2022/11/16 13:29:50;;;;;;;9.60;2.70;;;;;;;;;;4999678;28;20081;-76
2022/11/16 13:32:34;;;;;;;12.20;2.78;;;;;;;;;;4998275;28;20034;-76
2022/11/16 13:35:03;;;;;;;11.88;2.30;;;;;;;;;;5009057;28;20041;-76
2022/11/16 13:37:48;;;;;;;14.75;2.67;;;;;;;;;;5000005;28;20037;-76
2022/11/16 13:40:21;;;;;;;12.52;2.75;;;;;;;;;;5011203;28;20038;-76
2022/11/16 13:43:11;;;;;;;13.77;3.08;;;;;;;;;;5009114;28;20076;-76
2022/11/16 13:45:41;;;;;;;11.50;2.83;;;;;;;;;;5002740;28;20148;-77
2022/11/16 13:48:18;;;;;;;12.05;3.45;;;;;;;;;;5009809;28;20042;-76
2022/11/16 13:50:51;;;;;;;10.50;2.53;;;;;;;;;;5025064;28;20048;-77
2022/11/16 13:53:26;;;;;;;13.00;2.55;;;;;;;;;;5013839;28;20117;-78
2022/11/16 13:56:02;;;;;;;10.68;2.65;;;;;;;;;;5021319;28;20025;-75
2022/11/16 13:58:29;;;;;;;6.53;2.35;;;;;;;;;;5021114;28;20022;-76
2022/11/16 14:00:57;;;;;;;12.30;3.40;;;;;;;;;;5011475;28;20056;-76
2022/11/16 14:03:23;;;;;;;13.05;2.30;;;;;;;;;;5013075;28;20062;-76
2022/11/16 14:05:50;;;;;;;8.13;2.40;;;;;;;;;;5018811;28;20049;-76
2022/11/16 14:08:16;;;;;;;11.43;2.80;;;;;;;;;;5032543;28;20014;-75
2022/11/16 14:10:44;;;;;;;9.93;2.08;;;;;;;;;;5031691;28;20017;-77
2022/11/16 14:13:29;;;;;;;15.48;2.40;;;;;;;;;;5015308;28;20030;-76
2022/11/16 14:16:14;;;;;;;11.43;2.70;;;;;;;;;;5021531;28;20034;-75
2022/11/16 14:18:41;;;;;;;9.65;2.50;;;;;;;;;;5024446;28;20376;-81
2022/11/16 14:21:17;;;;;;;9.75;2.65;;;;;;;;;;5016630;28;20049;-76
2022/11/16 14:24:01;;;;;;;9.18;2.70;;;;;;;;;;5010457;28;20138;-76
2022/11/16 14:26:39;;;;;;;13.75;3.40;;;;;;;;;;5000094;28;20086;-76
2022/11/16 14:29:14;;;;;;;17.73;3.53;;;;;;;;;;5000589;28;20108;-76
2022/11/16 14:31:46;;;;;;;11.30;2.92;;;;;;;;;;5010498;28;20034;-76
2022/11/16 14:34:20;;;;;;;13.80;3.10;;;;;;;;;;5003904;28;20030;-76
2022/11/16 14:36:47;;;;;;;14.60;2.92;;;;;;;;;;4995224;28;20057;-76
2022/11/16 14:39:22;;;;;;;8.30;2.60;;;;;;;;;;5002485;28;20519;-76
2022/11/16 14:41:48;;;;;;;16.95;4.38;;;;;;;;;;4997800;28;20045;-76
2022/11/16 14:44:18;;;;;;;11.82;4.18;;;;;;;;;;4993480;28;20073;-76
2022/11/16 14:46:44;;;;;;;18.55;4.95;;;;;;;;;;4995166;28;20038;-76
2022/11/16 14:49:12;;;;;;;14.75;3.58;;;;;;;;;;4994075;28;20034;-76
2022/11/16 14:51:58;;;;;;;8.27;2.67;;;;;;;;;;5011292;28;20026;-76
2022/11/16 14:54:29;;;;;;;15.05;3.22;;;;;;;;;;5008756;28;20052;-77
2022/11/16 14:56:58;;;;;;;14.32;3.60;;;;;;;;;;5004085;28;20174;-76
2022/11/16 14:59:24;;;;;;;10.30;3.50;;;;;;;;;;4997693;28;20049;-76
2022/11/16 15:01:51;;;;;;;15.75;3.53;;;;;;;;;;5001515;28;20054;-76
2022/11/16 15:04:17;;;;;;;15.75;3.40;;;;;;;;;;4993166;28;20033;-76
2022/11/16 15:06:47;;;;;;;12.70;3.63;;;;;;;;;;5008015;28;20437;-76
2022/11/16 15:09:16;;;;;;;13.55;3.60;;;;;;;;;;5007222;28;20034;-76
2022/11/16 15:14:32;;;;;;;10.00;3.63;;;;;;;;;;4997847;28;20049;-77
2022/11/16 15:16:58;;;;;;;;;;;;;;;;;;4997214;28;20057;-77
2022/11/16 15:19:24;;;;;;;12.55;3.97;;;;;;;;;;4996783;28;20394;-77
2022/11/16 15:21:54;;;;;;;18.10;5.32;;;;;;;;;;5011355;28;20041;-76
2022/11/16 15:24:21;;;;;;;17.47;4.60;;;;;;;;;;5012346;28;20069;-77
2022/11/16 15:26:47;;;;;;;17.73;4.03;;;;;;;;;;4996800;28;20066;-76
2022/11/16 15:29:16;;;;;;;11.00;3.72;;;;;;;;;;4995103;28;20041;-77
2022/11/16 15:31:42;;;;;;;17.95;4.47;;;;;;;;;;4996564;28;20046;-77
2022/11/16 15:34:11;;;;;;;11.90;3.58;;;;;;;;;;5008064;28;20033;-77
2022/11/16 15:36:39;;;;;;;12.68;5.07;;;;;;;;;;5016912;28;20472;-78
2022/11/16 15:39:05;;;;;;;8.93;3.72;;;;;;;;;;5014153;28;20034;-78
2022/11/16 15:41:32;;;;;;;19.75;4.25;;;;;;;;;;5012843;28;20026;-77
2022/11/16 15:43:58;;;;;;;13.23;3.50;;;;;;;;;;5020405;28;20049;-77